Аэропорт: Сургут. Сургут

ICAO: USRR

METAR:
2019-09-21 16:00:00
USRR 211600Z VRB01MPS 9000 4400W BR NSC 02/01 Q1015 R25/CLRD60 NOSIG RMK QFE756
METAR:
2019-09-21 13:55:00
TAF USRR 211355Z 2115/2215 23004G09MPS 9999 BKN015CB BECMG 2120/2121 15003G08MPS FM220600 13005G11MPS 4000 -RA BKN011 OVC020 TEMPO 2206/2215 2100 -RA BKN006 OVC020